Ondarroa, Spain
Current Conditions -  °F | °C
As of 5:30 AM on Monday 26 Jan 2015 (Local Time) from LEBB Reporting Station
Overcast Overcast  
Wind Chill: 41°   Ceiling: 4500
Heat Index: 41°   Visibility: 6mi
Dew Point: 39°   Wind: 1mph
Humidity: 93%   Direction: NA
Pressure: 30.5"   Gusts: NA
Location:  43.32°N, 2.42°W
Report Text: LEBB 260430Z VRB01KT 9999 OVC045 05/04 Q1033 NOSIG
Loading
Personal Weather Stations






























Interactive Weather Map New forecast layout! Learn more

10-Day Weather Forecast

Advertisements
Track Severe Weather on mobile